sensor_id;sensor_type;location;lat;lon;timestamp;temperature;humidity
10911;DHT22;5508;49.150;11.030;2023-08-12T00:01:44;15.80;99.90
10911;DHT22;5508;49.150;11.030;2023-08-12T00:04:45;15.80;99.90
10911;DHT22;5508;49.150;11.030;2023-08-12T00:07:48;15.80;99.90
10911;DHT22;5508;49.150;11.030;2023-08-12T00:10:49;15.70;99.90
10911;DHT22;5508;49.150;11.030;2023-08-12T00:13:49;15.70;99.90
10911;DHT22;5508;49.150;11.030;2023-08-12T00:16:50;15.60;99.90
10911;DHT22;5508;49.150;11.030;2023-08-12T00:19:51;15.60;99.90
10911;DHT22;5508;49.150;11.030;2023-08-12T00:22:51;15.60;99.90
10911;DHT22;5508;49.150;11.030;2023-08-12T00:25:52;15.50;99.90
10911;DHT22;5508;49.150;11.030;2023-08-12T00:28:52;15.50;99.90
10911;DHT22;5508;49.150;11.030;2023-08-12T00:31:53;15.40;99.90
10911;DHT22;5508;49.150;11.030;2023-08-12T00:34:54;15.40;99.90
10911;DHT22;5508;49.150;11.030;2023-08-12T00:37:55;15.30;99.90
10911;DHT22;5508;49.150;11.030;2023-08-12T00:40:56;15.40;99.90
10911;DHT22;5508;49.150;11.030;2023-08-12T00:43:56;15.30;99.90
10911;DHT22;5508;49.150;11.030;2023-08-12T00:46:57;15.30;99.90
10911;DHT22;5508;49.150;11.030;2023-08-12T00:49:58;15.30;99.90
10911;DHT22;5508;49.150;11.030;2023-08-12T00:52:59;15.20;99.90
10911;DHT22;5508;49.150;11.030;2023-08-12T00:56:00;15.20;99.90
10911;DHT22;5508;49.150;11.030;2023-08-12T00:59:02;15.10;99.90
10911;DHT22;5508;49.150;11.030;2023-08-12T01:02:05;15.20;99.90
10911;DHT22;5508;49.150;11.030;2023-08-12T01:05:06;15.10;99.90
10911;DHT22;5508;49.150;11.030;2023-08-12T01:08:06;15.00;99.90
10911;DHT22;5508;49.150;11.030;2023-08-12T01:11:20;14.90;99.90
10911;DHT22;5508;49.150;11.030;2023-08-12T01:14:43;15.00;99.90
10911;DHT22;5508;49.150;11.030;2023-08-12T01:17:46;14.90;99.90
10911;DHT22;5508;49.150;11.030;2023-08-12T01:20:49;14.90;99.90
10911;DHT22;5508;49.150;11.030;2023-08-12T01:23:50;14.90;99.90
10911;DHT22;5508;49.150;11.030;2023-08-12T01:26:50;14.90;99.90
10911;DHT22;5508;49.150;11.030;2023-08-12T01:29:52;14.90;99.90
10911;DHT22;5508;49.150;11.030;2023-08-12T01:33:10;14.90;99.90
10911;DHT22;5508;49.150;11.030;2023-08-12T01:36:19;14.80;99.90
10911;DHT22;5508;49.150;11.030;2023-08-12T01:39:20;14.80;99.90
10911;DHT22;5508;49.150;11.030;2023-08-12T01:42:22;14.80;99.90
10911;DHT22;5508;49.150;11.030;2023-08-12T01:45:23;14.70;99.90
10911;DHT22;5508;49.150;11.030;2023-08-12T01:48:23;14.70;99.90
10911;DHT22;5508;49.150;11.030;2023-08-12T01:51:24;14.60;99.90
10911;DHT22;5508;49.150;11.030;2023-08-12T01:54:25;14.60;99.90
10911;DHT22;5508;49.150;11.030;2023-08-12T01:57:25;14.60;99.90
10911;DHT22;5508;49.150;11.030;2023-08-12T02:00:26;14.50;99.90
10911;DHT22;5508;49.150;11.030;2023-08-12T02:03:26;14.50;99.90
10911;DHT22;5508;49.150;11.030;2023-08-12T02:06:27;14.50;99.90
10911;DHT22;5508;49.150;11.030;2023-08-12T02:09:27;14.40;99.90
10911;DHT22;5508;49.150;11.030;2023-08-12T02:12:28;14.40;99.90
10911;DHT22;5508;49.150;11.030;2023-08-12T02:15:29;14.40;99.90
10911;DHT22;5508;49.150;11.030;2023-08-12T02:18:29;14.40;99.90
10911;DHT22;5508;49.150;11.030;2023-08-12T02:21:30;14.30;99.90
10911;DHT22;5508;49.150;11.030;2023-08-12T02:24:30;14.30;99.90
10911;DHT22;5508;49.150;11.030;2023-08-12T02:27:31;14.20;99.90
10911;DHT22;5508;49.150;11.030;2023-08-12T02:30:32;14.20;99.90
10911;DHT22;5508;49.150;11.030;2023-08-12T02:33:33;14.20;99.90
10911;DHT22;5508;49.150;11.030;2023-08-12T02:36:33;14.20;99.90
10911;DHT22;5508;49.150;11.030;2023-08-12T02:39:35;14.10;99.90
10911;DHT22;5508;49.150;11.030;2023-08-12T02:42:35;14.10;99.90
10911;DHT22;5508;49.150;11.030;2023-08-12T02:45:36;14.10;99.90
10911;DHT22;5508;49.150;11.030;2023-08-12T02:48:37;14.10;99.90
10911;DHT22;5508;49.150;11.030;2023-08-12T02:51:37;14.10;99.90
10911;DHT22;5508;49.150;11.030;2023-08-12T02:54:38;14.10;99.90
10911;DHT22;5508;49.150;11.030;2023-08-12T02:57:38;14.10;99.90
10911;DHT22;5508;49.150;11.030;2023-08-12T03:00:42;14.10;99.90
10911;DHT22;5508;49.150;11.030;2023-08-12T03:03:45;14.00;99.90
10911;DHT22;5508;49.150;11.030;2023-08-12T03:06:46;14.00;99.90
10911;DHT22;5508;49.150;11.030;2023-08-12T03:09:46;13.90;99.90
10911;DHT22;5508;49.150;11.030;2023-08-12T03:12:47;13.90;99.90
10911;DHT22;5508;49.150;11.030;2023-08-12T03:15:48;13.90;99.90
10911;DHT22;5508;49.150;11.030;2023-08-12T03:18:48;13.90;99.90
10911;DHT22;5508;49.150;11.030;2023-08-12T03:21:49;13.90;99.90
10911;DHT22;5508;49.150;11.030;2023-08-12T03:24:49;13.80;99.90
10911;DHT22;5508;49.150;11.030;2023-08-12T03:27:50;13.80;99.90
10911;DHT22;5508;49.150;11.030;2023-08-12T03:30:51;13.80;99.90
10911;DHT22;5508;49.150;11.030;2023-08-12T03:33:52;13.80;99.90
10911;DHT22;5508;49.150;11.030;2023-08-12T03:36:53;13.80;99.90
10911;DHT22;5508;49.150;11.030;2023-08-12T03:39:53;13.70;99.90
10911;DHT22;5508;49.150;11.030;2023-08-12T03:42:54;13.70;99.90
10911;DHT22;5508;49.150;11.030;2023-08-12T03:45:54;13.70;99.90
10911;DHT22;5508;49.150;11.030;2023-08-12T03:48:55;13.70;99.90
10911;DHT22;5508;49.150;11.030;2023-08-12T03:51:56;13.70;99.90
10911;DHT22;5508;49.150;11.030;2023-08-12T03:54:56;13.60;99.90
10911;DHT22;5508;49.150;11.030;2023-08-12T03:57:57;13.60;99.90
10911;DHT22;5508;49.150;11.030;2023-08-12T04:00:58;13.60;99.90
10911;DHT22;5508;49.150;11.030;2023-08-12T04:03:58;13.60;99.90
10911;DHT22;5508;49.150;11.030;2023-08-12T04:07:00;13.60;99.90
10911;DHT22;5508;49.150;11.030;2023-08-12T04:10:00;13.60;99.90
10911;DHT22;5508;49.150;11.030;2023-08-12T04:13:01;13.70;99.90
10911;DHT22;5508;49.150;11.030;2023-08-12T04:16:01;13.70;99.90
10911;DHT22;5508;49.150;11.030;2023-08-12T04:19:02;13.70;99.90
10911;DHT22;5508;49.150;11.030;2023-08-12T04:22:03;13.70;99.90
10911;DHT22;5508;49.150;11.030;2023-08-12T04:25:04;13.70;99.90
10911;DHT22;5508;49.150;11.030;2023-08-12T04:28:04;13.80;99.90
10911;DHT22;5508;49.150;11.030;2023-08-12T04:31:06;13.80;99.90
10911;DHT22;5508;49.150;11.030;2023-08-12T04:34:10;13.80;99.90
10911;DHT22;5508;49.150;11.030;2023-08-12T04:37:10;13.90;99.90
10911;DHT22;5508;49.150;11.030;2023-08-12T04:40:11;13.90;99.90
10911;DHT22;5508;49.150;11.030;2023-08-12T04:43:12;14.00;99.90
10911;DHT22;5508;49.150;11.030;2023-08-12T04:46:13;14.00;99.90
10911;DHT22;5508;49.150;11.030;2023-08-12T04:49:14;14.10;99.90
10911;DHT22;5508;49.150;11.030;2023-08-12T04:52:15;14.20;99.90
10911;DHT22;5508;49.150;11.030;2023-08-12T04:55:15;14.30;99.90
10911;DHT22;5508;49.150;11.030;2023-08-12T04:58:17;14.50;99.90
10911;DHT22;5508;49.150;11.030;2023-08-12T05:01:17;14.50;99.90
10911;DHT22;5508;49.150;11.030;2023-08-12T05:04:18;14.70;99.90
10911;DHT22;5508;49.150;11.030;2023-08-12T05:07:19;14.80;99.90
10911;DHT22;5508;49.150;11.030;2023-08-12T05:10:19;14.80;99.90
10911;DHT22;5508;49.150;11.030;2023-08-12T05:13:20;15.00;99.90
10911;DHT22;5508;49.150;11.030;2023-08-12T05:16:20;15.10;99.90
10911;DHT22;5508;49.150;11.030;2023-08-12T05:19:21;15.10;99.90
10911;DHT22;5508;49.150;11.030;2023-08-12T05:22:21;15.30;99.90
10911;DHT22;5508;49.150;11.030;2023-08-12T05:25:22;15.30;99.90
10911;DHT22;5508;49.150;11.030;2023-08-12T05:28:23;15.50;99.90
10911;DHT22;5508;49.150;11.030;2023-08-12T05:31:23;15.60;99.90
10911;DHT22;5508;49.150;11.030;2023-08-12T05:34:24;15.70;99.90
10911;DHT22;5508;49.150;11.030;2023-08-12T05:37:24;15.80;99.90
10911;DHT22;5508;49.150;11.030;2023-08-12T05:40:25;15.90;99.90
10911;DHT22;5508;49.150;11.030;2023-08-12T05:43:25;16.10;99.90
10911;DHT22;5508;49.150;11.030;2023-08-12T05:46:26;16.40;99.90
10911;DHT22;5508;49.150;11.030;2023-08-12T05:49:26;16.70;99.90
10911;DHT22;5508;49.150;11.030;2023-08-12T05:52:27;17.00;99.90
10911;DHT22;5508;49.150;11.030;2023-08-12T05:55:28;17.30;99.90
10911;DHT22;5508;49.150;11.030;2023-08-12T05:58:28;17.80;99.90
10911;DHT22;5508;49.150;11.030;2023-08-12T06:01:29;18.20;99.90
10911;DHT22;5508;49.150;11.030;2023-08-12T06:04:29;18.50;99.90
10911;DHT22;5508;49.150;11.030;2023-08-12T06:07:30;18.90;98.50
10911;DHT22;5508;49.150;11.030;2023-08-12T06:10:30;19.20;95.30
10911;DHT22;5508;49.150;11.030;2023-08-12T06:13:31;19.30;94.30
10911;DHT22;5508;49.150;11.030;2023-08-12T06:16:32;19.30;96.70
10911;DHT22;5508;49.150;11.030;2023-08-12T06:19:32;19.40;96.20
10911;DHT22;5508;49.150;11.030;2023-08-12T06:22:33;19.20;97.10
10911;DHT22;5508;49.150;11.030;2023-08-12T06:25:34;19.20;99.00
10911;DHT22;5508;49.150;11.030;2023-08-12T06:28:36;19.10;99.90
10911;DHT22;5508;49.150;11.030;2023-08-12T06:31:37;19.10;99.90
10911;DHT22;5508;49.150;11.030;2023-08-12T06:34:37;19.20;99.90
10911;DHT22;5508;49.150;11.030;2023-08-12T06:37:38;19.20;99.90
10911;DHT22;5508;49.150;11.030;2023-08-12T06:40:39;19.20;99.90
10911;DHT22;5508;49.150;11.030;2023-08-12T06:43:39;19.30;99.90
10911;DHT22;5508;49.150;11.030;2023-08-12T06:46:40;19.40;99.90
10911;DHT22;5508;49.150;11.030;2023-08-12T06:49:40;19.50;99.90
10911;DHT22;5508;49.150;11.030;2023-08-12T06:52:41;19.50;99.90
10911;DHT22;5508;49.150;11.030;2023-08-12T06:55:45;19.70;98.40
10911;DHT22;5508;49.150;11.030;2023-08-12T06:58:46;19.90;97.10
10911;DHT22;5508;49.150;11.030;2023-08-12T07:01:46;20.00;92.30
10911;DHT22;5508;49.150;11.030;2023-08-12T07:04:47;20.20;94.50
10911;DHT22;5508;49.150;11.030;2023-08-12T07:07:47;20.20;93.60
10911;DHT22;5508;49.150;11.030;2023-08-12T07:10:48;20.30;92.90
10911;DHT22;5508;49.150;11.030;2023-08-12T07:13:49;20.30;94.10
10911;DHT22;5508;49.150;11.030;2023-08-12T07:16:49;20.20;94.20
10911;DHT22;5508;49.150;11.030;2023-08-12T07:19:50;20.30;91.60
10911;DHT22;5508;49.150;11.030;2023-08-12T07:22:51;20.50;93.20
10911;DHT22;5508;49.150;11.030;2023-08-12T07:25:51;20.70;94.00
10911;DHT22;5508;49.150;11.030;2023-08-12T07:28:52;20.70;93.40
10911;DHT22;5508;49.150;11.030;2023-08-12T07:31:53;20.80;93.70
10911;DHT22;5508;49.150;11.030;2023-08-12T07:34:53;21.00;91.20
10911;DHT22;5508;49.150;11.030;2023-08-12T07:37:54;21.10;92.90
10911;DHT22;5508;49.150;11.030;2023-08-12T07:40:56;21.40;88.60
10911;DHT22;5508;49.150;11.030;2023-08-12T07:43:56;21.80;89.50
10911;DHT22;5508;49.150;11.030;2023-08-12T07:46:57;22.00;85.40
10911;DHT22;5508;49.150;11.030;2023-08-12T07:49:57;22.10;80.80
10911;DHT22;5508;49.150;11.030;2023-08-12T07:52:58;22.10;80.30
10911;DHT22;5508;49.150;11.030;2023-08-12T07:55:58;22.20;80.20
10911;DHT22;5508;49.150;11.030;2023-08-12T07:58:59;22.30;80.10
10911;DHT22;5508;49.150;11.030;2023-08-12T08:02:00;22.40;82.10
10911;DHT22;5508;49.150;11.030;2023-08-12T08:05:00;22.50;80.40
10911;DHT22;5508;49.150;11.030;2023-08-12T08:08:01;22.50;80.80
10911;DHT22;5508;49.150;11.030;2023-08-12T08:11:02;22.70;81.70
10911;DHT22;5508;49.150;11.030;2023-08-12T08:14:02;22.50;84.70
10911;DHT22;5508;49.150;11.030;2023-08-12T08:17:03;22.50;83.00
10911;DHT22;5508;49.150;11.030;2023-08-12T08:20:04;22.50;85.60
10911;DHT22;5508;49.150;11.030;2023-08-12T08:23:05;22.70;85.70
10911;DHT22;5508;49.150;11.030;2023-08-12T08:26:06;22.90;82.20
10911;DHT22;5508;49.150;11.030;2023-08-12T08:29:07;23.10;80.40
10911;DHT22;5508;49.150;11.030;2023-08-12T08:32:07;23.00;80.40
10911;DHT22;5508;49.150;11.030;2023-08-12T08:35:08;23.20;80.20
10911;DHT22;5508;49.150;11.030;2023-08-12T08:38:09;23.30;80.20
10911;DHT22;5508;49.150;11.030;2023-08-12T08:41:10;23.40;78.10
10911;DHT22;5508;49.150;11.030;2023-08-12T08:44:12;23.30;76.70
10911;DHT22;5508;49.150;11.030;2023-08-12T08:47:16;23.40;77.40
10911;DHT22;5508;49.150;11.030;2023-08-12T08:50:18;23.50;75.10
10911;DHT22;5508;49.150;11.030;2023-08-12T08:53:20;23.70;75.90
10911;DHT22;5508;49.150;11.030;2023-08-12T08:56:21;23.80;75.80
10911;DHT22;5508;49.150;11.030;2023-08-12T08:59:22;24.10;75.40
10911;DHT22;5508;49.150;11.030;2023-08-12T09:02:23;24.10;75.10
10911;DHT22;5508;49.150;11.030;2023-08-12T09:05:25;24.20;73.30
10911;DHT22;5508;49.150;11.030;2023-08-12T09:08:27;24.30;71.70
10911;DHT22;5508;49.150;11.030;2023-08-12T09:11:30;24.30;72.80
10911;DHT22;5508;49.150;11.030;2023-08-12T09:14:30;24.60;73.50
10911;DHT22;5508;49.150;11.030;2023-08-12T09:17:31;24.90;69.80
10911;DHT22;5508;49.150;11.030;2023-08-12T09:20:34;25.10;68.50
10911;DHT22;5508;49.150;11.030;2023-08-12T09:23:39;25.30;69.20
10911;DHT22;5508;49.150;11.030;2023-08-12T09:26:42;25.50;67.20
10911;DHT22;5508;49.150;11.030;2023-08-12T09:29:43;25.70;62.80
10911;DHT22;5508;49.150;11.030;2023-08-12T09:32:58;25.60;66.00
10911;DHT22;5508;49.150;11.030;2023-08-12T09:35:59;25.60;66.30
10911;DHT22;5508;49.150;11.030;2023-08-12T09:38:59;25.80;65.20
10911;DHT22;5508;49.150;11.030;2023-08-12T09:42:00;25.70;67.30
10911;DHT22;5508;49.150;11.030;2023-08-12T09:45:01;25.70;68.20
10911;DHT22;5508;49.150;11.030;2023-08-12T09:48:02;25.80;68.00
10911;DHT22;5508;49.150;11.030;2023-08-12T09:51:04;26.20;62.10
10911;DHT22;5508;49.150;11.030;2023-08-12T09:54:04;26.50;65.00
10911;DHT22;5508;49.150;11.030;2023-08-12T09:57:08;26.80;62.80
10911;DHT22;5508;49.150;11.030;2023-08-12T10:00:12;26.80;60.50
10911;DHT22;5508;49.150;11.030;2023-08-12T10:03:18;27.10;61.40
10911;DHT22;5508;49.150;11.030;2023-08-12T10:06:20;27.30;58.40
10911;DHT22;5508;49.150;11.030;2023-08-12T10:09:21;27.50;57.50
10911;DHT22;5508;49.150;11.030;2023-08-12T10:12:21;27.80;56.00
10911;DHT22;5508;49.150;11.030;2023-08-12T10:15:22;27.70;54.80
10911;DHT22;5508;49.150;11.030;2023-08-12T10:18:24;27.50;58.30
10911;DHT22;5508;49.150;11.030;2023-08-12T10:21:25;27.30;58.70
10911;DHT22;5508;49.150;11.030;2023-08-12T10:24:27;27.20;59.30
10911;DHT22;5508;49.150;11.030;2023-08-12T10:27:28;27.20;61.50
10911;DHT22;5508;49.150;11.030;2023-08-12T10:30:30;27.30;60.20
10911;DHT22;5508;49.150;11.030;2023-08-12T10:33:37;27.70;57.80
10911;DHT22;5508;49.150;11.030;2023-08-12T10:36:41;27.80;59.60
10911;DHT22;5508;49.150;11.030;2023-08-12T10:39:42;27.90;59.40
10911;DHT22;5508;49.150;11.030;2023-08-12T10:42:47;28.50;56.60
10911;DHT22;5508;49.150;11.030;2023-08-12T10:45:52;28.40;53.70
10911;DHT22;5508;49.150;11.030;2023-08-12T10:49:06;27.90;55.10
10911;DHT22;5508;49.150;11.030;2023-08-12T10:52:29;27.70;55.90
10911;DHT22;5508;49.150;11.030;2023-08-12T10:55:30;27.80;56.50
10911;DHT22;5508;49.150;11.030;2023-08-12T10:58:40;28.00;55.20
10911;DHT22;5508;49.150;11.030;2023-08-12T11:01:41;28.10;54.70
10911;DHT22;5508;49.150;11.030;2023-08-12T11:04:42;28.40;55.70
10911;DHT22;5508;49.150;11.030;2023-08-12T11:07:48;28.50;56.60
10911;DHT22;5508;49.150;11.030;2023-08-12T11:10:54;28.20;56.50
10911;DHT22;5508;49.150;11.030;2023-08-12T11:13:56;27.90;55.10
10911;DHT22;5508;49.150;11.030;2023-08-12T11:17:00;28.10;55.90
10911;DHT22;5508;49.150;11.030;2023-08-12T11:20:12;28.20;54.90
10911;DHT22;5508;49.150;11.030;2023-08-12T11:23:14;28.50;54.90
10911;DHT22;5508;49.150;11.030;2023-08-12T11:26:14;28.50;55.10
10911;DHT22;5508;49.150;11.030;2023-08-12T11:29:15;28.50;55.10
10911;DHT22;5508;49.150;11.030;2023-08-12T11:32:18;28.40;55.30
10911;DHT22;5508;49.150;11.030;2023-08-12T11:35:20;28.60;54.10
10911;DHT22;5508;49.150;11.030;2023-08-12T11:38:21;28.50;55.20
10911;DHT22;5508;49.150;11.030;2023-08-12T11:41:27;28.30;56.30
10911;DHT22;5508;49.150;11.030;2023-08-12T11:44:27;28.40;57.60
10911;DHT22;5508;49.150;11.030;2023-08-12T11:47:28;28.10;59.20
10911;DHT22;5508;49.150;11.030;2023-08-12T11:50:28;28.30;59.40
10911;DHT22;5508;49.150;11.030;2023-08-12T11:53:29;28.60;59.20
10911;DHT22;5508;49.150;11.030;2023-08-12T11:56:30;29.00;57.60
10911;DHT22;5508;49.150;11.030;2023-08-12T11:59:30;29.00;56.60
10911;DHT22;5508;49.150;11.030;2023-08-12T12:02:31;29.10;56.80
10911;DHT22;5508;49.150;11.030;2023-08-12T12:05:35;29.10;56.70
10911;DHT22;5508;49.150;11.030;2023-08-12T12:08:36;29.30;55.30
10911;DHT22;5508;49.150;11.030;2023-08-12T12:11:37;29.30;56.90
10911;DHT22;5508;49.150;11.030;2023-08-12T12:14:37;29.10;55.40
10911;DHT22;5508;49.150;11.030;2023-08-12T12:17:39;29.10;56.50
10911;DHT22;5508;49.150;11.030;2023-08-12T12:20:57;29.20;55.20
10911;DHT22;5508;49.150;11.030;2023-08-12T12:23:57;29.10;54.70
10911;DHT22;5508;49.150;11.030;2023-08-12T12:26:58;29.10;55.30
10911;DHT22;5508;49.150;11.030;2023-08-12T12:30:00;29.30;54.90
10911;DHT22;5508;49.150;11.030;2023-08-12T12:33:00;29.60;52.70
10911;DHT22;5508;49.150;11.030;2023-08-12T12:36:01;29.70;50.40
10911;DHT22;5508;49.150;11.030;2023-08-12T12:39:05;29.60;50.70
10911;DHT22;5508;49.150;11.030;2023-08-12T12:42:06;29.50;52.30
10911;DHT22;5508;49.150;11.030;2023-08-12T12:45:07;29.50;52.70
10911;DHT22;5508;49.150;11.030;2023-08-12T12:48:08;29.70;50.30
10911;DHT22;5508;49.150;11.030;2023-08-12T12:51:08;29.60;49.00
10911;DHT22;5508;49.150;11.030;2023-08-12T12:54:09;29.40;50.00
10911;DHT22;5508;49.150;11.030;2023-08-12T12:57:10;29.50;50.70
10911;DHT22;5508;49.150;11.030;2023-08-12T13:00:11;29.30;49.40
10911;DHT22;5508;49.150;11.030;2023-08-12T13:03:12;29.00;51.20
10911;DHT22;5508;49.150;11.030;2023-08-12T13:06:13;29.10;53.00
10911;DHT22;5508;49.150;11.030;2023-08-12T13:09:13;29.10;50.20
10911;DHT22;5508;49.150;11.030;2023-08-12T13:12:14;29.50;51.00
10911;DHT22;5508;49.150;11.030;2023-08-12T13:15:15;29.60;51.90
10911;DHT22;5508;49.150;11.030;2023-08-12T13:18:15;29.40;50.20
10911;DHT22;5508;49.150;11.030;2023-08-12T13:21:16;29.50;49.10
10911;DHT22;5508;49.150;11.030;2023-08-12T13:24:17;28.90;49.90
10911;DHT22;5508;49.150;11.030;2023-08-12T13:27:17;28.60;52.20
10911;DHT22;5508;49.150;11.030;2023-08-12T13:30:18;28.60;53.10
10911;DHT22;5508;49.150;11.030;2023-08-12T13:33:18;28.50;53.30
10911;DHT22;5508;49.150;11.030;2023-08-12T13:36:19;28.70;51.40
10911;DHT22;5508;49.150;11.030;2023-08-12T13:39:19;28.60;55.20
10911;DHT22;5508;49.150;11.030;2023-08-12T13:42:21;28.50;53.50
10911;DHT22;5508;49.150;11.030;2023-08-12T13:45:21;28.30;54.90
10911;DHT22;5508;49.150;11.030;2023-08-12T13:48:22;28.10;55.60
10911;DHT22;5508;49.150;11.030;2023-08-12T13:51:23;27.80;56.20
10911;DHT22;5508;49.150;11.030;2023-08-12T13:54:23;27.70;57.70
10911;DHT22;5508;49.150;11.030;2023-08-12T13:57:24;27.40;62.70
10911;DHT22;5508;49.150;11.030;2023-08-12T14:00:24;26.50;74.20
10911;DHT22;5508;49.150;11.030;2023-08-12T14:03:25;23.90;98.70
10911;DHT22;5508;49.150;11.030;2023-08-12T14:06:26;22.50;99.90
10911;DHT22;5508;49.150;11.030;2023-08-12T14:09:26;21.50;99.90
10911;DHT22;5508;49.150;11.030;2023-08-12T14:12:27;20.70;99.90
10911;DHT22;5508;49.150;11.030;2023-08-12T14:15:27;20.70;99.90
10911;DHT22;5508;49.150;11.030;2023-08-12T14:18:28;20.50;99.90
10911;DHT22;5508;49.150;11.030;2023-08-12T14:21:28;20.40;99.90
10911;DHT22;5508;49.150;11.030;2023-08-12T14:24:29;20.60;99.90
10911;DHT22;5508;49.150;11.030;2023-08-12T14:27:31;20.40;99.90
10911;DHT22;5508;49.150;11.030;2023-08-12T14:30:32;20.40;99.90
10911;DHT22;5508;49.150;11.030;2023-08-12T14:33:33;20.40;99.90
10911;DHT22;5508;49.150;11.030;2023-08-12T14:36:33;20.20;99.90
10911;DHT22;5508;49.150;11.030;2023-08-12T14:39:36;20.10;99.90
10911;DHT22;5508;49.150;11.030;2023-08-12T14:42:36;19.70;99.90
10911;DHT22;5508;49.150;11.030;2023-08-12T14:45:37;19.10;99.90
10911;DHT22;5508;49.150;11.030;2023-08-12T14:48:38;18.10;99.90
10911;DHT22;5508;49.150;11.030;2023-08-12T14:51:38;17.70;99.90
10911;DHT22;5508;49.150;11.030;2023-08-12T14:54:40;17.60;99.90
10911;DHT22;5508;49.150;11.030;2023-08-12T14:57:40;17.90;99.90
10911;DHT22;5508;49.150;11.030;2023-08-12T15:00:41;17.90;99.90
10911;DHT22;5508;49.150;11.030;2023-08-12T15:03:42;17.90;99.90
10911;DHT22;5508;49.150;11.030;2023-08-12T15:06:42;17.80;99.90
10911;DHT22;5508;49.150;11.030;2023-08-12T15:09:43;17.70;99.90
10911;DHT22;5508;49.150;11.030;2023-08-12T15:12:43;17.60;99.90
10911;DHT22;5508;49.150;11.030;2023-08-12T15:15:48;17.70;99.90
10911;DHT22;5508;49.150;11.030;2023-08-12T15:18:49;17.70;99.90
10911;DHT22;5508;49.150;11.030;2023-08-12T15:21:49;17.70;99.90
10911;DHT22;5508;49.150;11.030;2023-08-12T15:24:51;17.80;99.90
10911;DHT22;5508;49.150;11.030;2023-08-12T15:27:53;17.90;99.90
10911;DHT22;5508;49.150;11.030;2023-08-12T15:30:53;17.90;99.90
10911;DHT22;5508;49.150;11.030;2023-08-12T15:33:54;17.90;99.90
10911;DHT22;5508;49.150;11.030;2023-08-12T15:36:55;17.80;99.90
10911;DHT22;5508;49.150;11.030;2023-08-12T15:39:55;17.80;99.90
10911;DHT22;5508;49.150;11.030;2023-08-12T15:42:56;17.90;99.90
10911;DHT22;5508;49.150;11.030;2023-08-12T15:45:57;17.90;99.90
10911;DHT22;5508;49.150;11.030;2023-08-12T15:48:57;17.80;99.90
10911;DHT22;5508;49.150;11.030;2023-08-12T15:51:58;17.80;99.90
10911;DHT22;5508;49.150;11.030;2023-08-12T15:54:58;17.80;99.90
10911;DHT22;5508;49.150;11.030;2023-08-12T15:57:59;17.80;99.90
10911;DHT22;5508;49.150;11.030;2023-08-12T16:00:59;18.10;99.90
10911;DHT22;5508;49.150;11.030;2023-08-12T16:04:00;18.20;99.90
10911;DHT22;5508;49.150;11.030;2023-08-12T16:07:01;18.40;99.90
10911;DHT22;5508;49.150;11.030;2023-08-12T16:10:01;18.40;99.90
10911;DHT22;5508;49.150;11.030;2023-08-12T16:13:02;18.30;99.90
10911;DHT22;5508;49.150;11.030;2023-08-12T16:16:04;18.40;99.90
10911;DHT22;5508;49.150;11.030;2023-08-12T16:19:04;18.50;99.90
10911;DHT22;5508;49.150;11.030;2023-08-12T16:22:05;18.70;99.90
10911;DHT22;5508;49.150;11.030;2023-08-12T16:25:06;19.00;99.90
10911;DHT22;5508;49.150;11.030;2023-08-12T16:28:07;19.10;99.90
10911;DHT22;5508;49.150;11.030;2023-08-12T16:31:08;19.20;99.90
10911;DHT22;5508;49.150;11.030;2023-08-12T16:34:08;19.40;99.90
10911;DHT22;5508;49.150;11.030;2023-08-12T16:37:09;19.50;99.90
10911;DHT22;5508;49.150;11.030;2023-08-12T16:40:10;19.40;99.90
10911;DHT22;5508;49.150;11.030;2023-08-12T16:43:11;19.40;99.90
10911;DHT22;5508;49.150;11.030;2023-08-12T16:46:11;19.40;99.90
10911;DHT22;5508;49.150;11.030;2023-08-12T16:49:12;19.40;99.90
10911;DHT22;5508;49.150;11.030;2023-08-12T16:52:12;19.40;99.90
10911;DHT22;5508;49.150;11.030;2023-08-12T16:55:13;19.40;99.90
10911;DHT22;5508;49.150;11.030;2023-08-12T16:58:14;19.40;99.90
10911;DHT22;5508;49.150;11.030;2023-08-12T17:01:14;19.50;99.90
10911;DHT22;5508;49.150;11.030;2023-08-12T17:04:15;19.40;99.90
10911;DHT22;5508;49.150;11.030;2023-08-12T17:07:15;19.30;99.90
10911;DHT22;5508;49.150;11.030;2023-08-12T17:10:16;19.30;99.90
10911;DHT22;5508;49.150;11.030;2023-08-12T17:13:17;19.30;99.90
10911;DHT22;5508;49.150;11.030;2023-08-12T17:16:18;19.20;99.90
10911;DHT22;5508;49.150;11.030;2023-08-12T17:19:19;19.20;99.90
10911;DHT22;5508;49.150;11.030;2023-08-12T17:22:20;19.20;99.90
10911;DHT22;5508;49.150;11.030;2023-08-12T17:25:20;19.10;99.90
10911;DHT22;5508;49.150;11.030;2023-08-12T17:28:21;19.10;99.90
10911;DHT22;5508;49.150;11.030;2023-08-12T17:31:21;19.10;99.90
10911;DHT22;5508;49.150;11.030;2023-08-12T17:34:22;19.10;99.90
10911;DHT22;5508;49.150;11.030;2023-08-12T17:37:23;19.00;99.90
10911;DHT22;5508;49.150;11.030;2023-08-12T17:40:26;18.90;99.90
10911;DHT22;5508;49.150;11.030;2023-08-12T17:43:27;18.90;99.90
10911;DHT22;5508;49.150;11.030;2023-08-12T17:46:27;19.00;99.90
10911;DHT22;5508;49.150;11.030;2023-08-12T17:49:28;19.00;99.90
10911;DHT22;5508;49.150;11.030;2023-08-12T17:52:29;19.00;99.90
10911;DHT22;5508;49.150;11.030;2023-08-12T17:55:29;19.00;99.90
10911;DHT22;5508;49.150;11.030;2023-08-12T17:58:30;19.00;99.90
10911;DHT22;5508;49.150;11.030;2023-08-12T18:01:30;19.00;99.90
10911;DHT22;5508;49.150;11.030;2023-08-12T18:04:31;18.90;99.90
10911;DHT22;5508;49.150;11.030;2023-08-12T18:07:32;19.00;99.90
10911;DHT22;5508;49.150;11.030;2023-08-12T18:10:32;18.90;99.90
10911;DHT22;5508;49.150;11.030;2023-08-12T18:13:33;18.90;99.90
10911;DHT22;5508;49.150;11.030;2023-08-12T18:16:33;18.90;99.90
10911;DHT22;5508;49.150;11.030;2023-08-12T18:19:34;18.90;99.90
10911;DHT22;5508;49.150;11.030;2023-08-12T18:22:35;18.90;99.90
10911;DHT22;5508;49.150;11.030;2023-08-12T18:25:35;18.90;99.90
10911;DHT22;5508;49.150;11.030;2023-08-12T18:28:36;18.90;99.90
10911;DHT22;5508;49.150;11.030;2023-08-12T18:31:36;18.80;99.90
10911;DHT22;5508;49.150;11.030;2023-08-12T18:34:39;18.80;99.90
10911;DHT22;5508;49.150;11.030;2023-08-12T18:37:40;18.80;99.90
10911;DHT22;5508;49.150;11.030;2023-08-12T18:40:40;18.80;99.90
10911;DHT22;5508;49.150;11.030;2023-08-12T18:43:41;18.70;99.90
10911;DHT22;5508;49.150;11.030;2023-08-12T18:46:41;18.70;99.90
10911;DHT22;5508;49.150;11.030;2023-08-12T18:49:43;18.70;99.90
10911;DHT22;5508;49.150;11.030;2023-08-12T18:52:43;18.70;99.90
10911;DHT22;5508;49.150;11.030;2023-08-12T18:55:44;18.60;99.90
10911;DHT22;5508;49.150;11.030;2023-08-12T18:58:45;18.60;99.90
10911;DHT22;5508;49.150;11.030;2023-08-12T19:01:45;18.60;99.90
10911;DHT22;5508;49.150;11.030;2023-08-12T19:04:46;18.60;99.90